createdAt,value
2023-04-29T00:01:32.282Z,10.13
2023-04-29T00:03:59.276Z,9.30
2023-04-29T00:06:26.562Z,10.07
2023-04-29T00:08:53.392Z,8.90
2023-04-29T00:11:20.524Z,10.47
2023-04-29T00:13:47.345Z,9.53
2023-04-29T00:16:14.189Z,9.37
2023-04-29T00:18:41.174Z,9.60
2023-04-29T00:21:08.031Z,8.97
2023-04-29T00:23:35.385Z,9.50
2023-04-29T00:26:02.606Z,9.83
2023-04-29T00:28:29.621Z,9.10
2023-04-29T00:30:57.185Z,8.53
2023-04-29T00:33:24.307Z,9.60
2023-04-29T00:35:51.370Z,9.80
2023-04-29T00:38:25.102Z,9.40
2023-04-29T00:40:52.352Z,8.97
2023-04-29T00:43:19.172Z,7.87
2023-04-29T00:45:47.076Z,9.43
2023-04-29T00:48:15.310Z,9.67
2023-04-29T00:50:42.318Z,8.63
2023-04-29T00:53:12.903Z,8.47
2023-04-29T00:55:41.624Z,9.20
2023-04-29T00:58:10.477Z,8.37
2023-04-29T01:00:38.548Z,8.43
2023-04-29T01:03:06.054Z,8.90
2023-04-29T01:05:33.981Z,8.90
2023-04-29T01:08:24.215Z,9.43
2023-04-29T01:11:11.045Z,7.83
2023-04-29T01:13:50.183Z,8.80
2023-04-29T01:16:25.357Z,9.23
2023-04-29T01:18:59.024Z,8.20
2023-04-29T01:21:26.227Z,9.10
2023-04-29T01:23:56.282Z,8.60
2023-04-29T01:26:25.894Z,8.07
2023-04-29T01:29:16.666Z,8.53
2023-04-29T01:32:04.992Z,8.50
2023-04-29T01:35:00.803Z,8.50
2023-04-29T01:37:57.786Z,8.43
2023-04-29T01:40:30.373Z,8.20
2023-04-29T01:43:01.695Z,7.43
2023-04-29T01:45:30.088Z,9.00
2023-04-29T01:47:58.779Z,8.37
2023-04-29T01:50:25.988Z,8.23
2023-04-29T01:52:52.932Z,8.07
2023-04-29T01:55:19.959Z,8.17
2023-04-29T01:57:46.930Z,8.17
2023-04-29T02:00:13.808Z,8.27
2023-04-29T02:02:41.045Z,8.30
2023-04-29T02:05:09.956Z,8.30
2023-04-29T02:07:38.880Z,8.37
2023-04-29T02:10:07.321Z,9.10
2023-04-29T02:12:34.661Z,8.73
2023-04-29T02:15:02.584Z,8.77
2023-04-29T02:17:29.411Z,8.33
2023-04-29T02:19:56.144Z,9.37
2023-04-29T02:22:23.001Z,8.17
2023-04-29T02:24:49.984Z,8.37
2023-04-29T02:27:17.077Z,8.83
2023-04-29T02:29:43.959Z,8.50
2023-04-29T02:32:10.893Z,9.10
2023-04-29T02:34:38.471Z,8.37
2023-04-29T02:37:05.360Z,8.30
2023-04-29T02:39:32.289Z,9.73
2023-04-29T02:41:59.004Z,8.80
2023-04-29T02:44:26.045Z,8.53
2023-04-29T02:46:53.302Z,8.60
2023-04-29T02:49:20.257Z,9.10
2023-04-29T02:51:49.666Z,8.57
2023-04-29T02:54:17.717Z,7.47
2023-04-29T02:56:44.760Z,8.30
2023-04-29T02:59:11.683Z,8.03
2023-04-29T03:01:38.925Z,8.37
2023-04-29T03:04:06.865Z,7.93
2023-04-29T03:06:34.186Z,7.97
2023-04-29T03:09:01.254Z,8.20
2023-04-29T03:11:28.409Z,7.80
2023-04-29T03:13:55.500Z,8.30
2023-04-29T03:16:23.286Z,7.53
2023-04-29T03:18:50.359Z,8.07
2023-04-29T03:21:18.678Z,8.00
2023-04-29T03:23:45.503Z,8.27
2023-04-29T03:26:12.406Z,7.30
2023-04-29T03:28:40.402Z,7.67
2023-04-29T03:31:07.358Z,8.03
2023-04-29T03:33:35.362Z,7.60
2023-04-29T03:36:02.949Z,7.93
2023-04-29T03:38:30.024Z,8.27
2023-04-29T03:40:56.816Z,6.73
2023-04-29T03:43:24.878Z,7.47
2023-04-29T03:45:51.805Z,8.17
2023-04-29T03:48:20.308Z,8.23
2023-04-29T03:50:47.496Z,7.17
2023-04-29T03:53:15.303Z,7.60
2023-04-29T03:55:42.138Z,7.27
2023-04-29T03:58:09.866Z,7.50
2023-04-29T04:00:36.900Z,7.20
2023-04-29T04:03:05.569Z,8.60
2023-04-29T04:05:32.948Z,7.50
2023-04-29T04:08:00.842Z,7.70
2023-04-29T04:10:30.123Z,8.00
2023-04-29T04:12:57.088Z,7.67
2023-04-29T04:15:24.412Z,7.23
2023-04-29T04:17:51.406Z,7.00
2023-04-29T04:20:18.276Z,6.83
2023-04-29T04:22:45.063Z,7.23
2023-04-29T04:25:12.024Z,6.73
2023-04-29T04:27:41.238Z,7.17
2023-04-29T04:30:10.507Z,6.70
2023-04-29T04:32:39.281Z,7.10
2023-04-29T04:35:12.474Z,7.83
2023-04-29T04:37:39.391Z,7.70
2023-04-29T04:40:07.346Z,6.60
2023-04-29T04:42:34.290Z,6.83
2023-04-29T04:45:01.449Z,6.73
2023-04-29T04:47:28.250Z,7.80
2023-04-29T04:49:55.401Z,6.60
2023-04-29T04:52:22.708Z,8.50
2023-04-29T04:54:49.790Z,6.93
2023-04-29T04:57:16.618Z,6.83
2023-04-29T04:59:43.489Z,7.83
2023-04-29T05:02:11.600Z,7.00
2023-04-29T05:04:39.561Z,6.67
2023-04-29T05:07:06.439Z,6.93
2023-04-29T05:09:35.746Z,6.80
2023-04-29T05:12:02.914Z,7.30
2023-04-29T05:14:29.766Z,7.40
2023-04-29T05:17:00.451Z,7.10
2023-04-29T05:19:27.496Z,6.47
2023-04-29T05:21:54.232Z,6.40
2023-04-29T05:24:21.204Z,6.20
2023-04-29T05:26:52.032Z,6.73
2023-04-29T05:29:21.078Z,6.63
2023-04-29T05:31:48.006Z,7.20
2023-04-29T05:34:15.202Z,6.57
2023-04-29T05:36:41.955Z,6.50
2023-04-29T05:39:10.021Z,6.43
2023-04-29T05:41:36.803Z,6.67
2023-04-29T05:44:03.754Z,5.73
2023-04-29T05:46:31.875Z,5.73
2023-04-29T05:48:58.856Z,6.70
2023-04-29T05:51:26.159Z,7.00
2023-04-29T05:53:59.456Z,7.07
2023-04-29T05:56:28.376Z,5.87
2023-04-29T05:58:59.499Z,6.50
2023-04-29T06:01:32.992Z,6.77
2023-04-29T06:03:59.987Z,5.53
2023-04-29T06:06:27.277Z,6.43
2023-04-29T06:09:01.067Z,5.70
2023-04-29T06:11:28.141Z,5.83
2023-04-29T06:13:56.220Z,5.40
2023-04-29T06:16:25.487Z,5.70
2023-04-29T06:18:53.603Z,5.90
2023-04-29T06:21:22.533Z,5.97
2023-04-29T06:23:51.607Z,6.43
2023-04-29T06:26:20.975Z,6.07
2023-04-29T06:28:50.257Z,6.10
2023-04-29T06:31:17.489Z,5.50
2023-04-29T06:33:44.486Z,5.87
2023-04-29T06:36:11.194Z,7.13
2023-04-29T06:38:38.376Z,6.00
2023-04-29T06:41:08.262Z,5.03
2023-04-29T06:43:35.074Z,5.37
2023-04-29T06:46:09.963Z,5.43
2023-04-29T06:48:55.267Z,5.68
2023-04-29T06:51:22.052Z,5.23
2023-04-29T06:53:49.266Z,5.70
2023-04-29T06:56:17.146Z,4.97
2023-04-29T06:58:45.401Z,5.33
2023-04-29T07:01:14.338Z,5.03
2023-04-29T07:03:41.227Z,4.55
2023-04-29T07:06:10.305Z,5.05
2023-04-29T07:08:37.277Z,4.75
2023-04-29T07:11:04.482Z,5.03
2023-04-29T07:13:32.369Z,4.90
2023-04-29T07:15:59.439Z,4.38
2023-04-29T07:18:26.328Z,4.68
2023-04-29T07:20:53.532Z,4.53
2023-04-29T07:23:20.680Z,4.55
2023-04-29T07:25:47.891Z,3.90
2023-04-29T07:28:17.265Z,3.88
2023-04-29T07:30:44.348Z,5.57
2023-04-29T07:33:12.277Z,4.22
2023-04-29T07:35:43.285Z,4.25
2023-04-29T07:38:10.402Z,4.40
2023-04-29T07:40:45.190Z,4.68
2023-04-29T07:43:14.097Z,4.10
2023-04-29T07:45:46.684Z,4.13
2023-04-29T07:48:13.637Z,4.50
2023-04-29T07:50:40.458Z,5.07
2023-04-29T07:53:07.469Z,4.32
2023-04-29T07:55:37.900Z,4.57
2023-04-29T07:58:05.021Z,4.07
2023-04-29T08:00:34.179Z,4.38
2023-04-29T08:03:01.230Z,4.07
2023-04-29T08:05:31.922Z,4.20
2023-04-29T08:07:59.286Z,4.55
2023-04-29T08:10:28.394Z,4.32
2023-04-29T08:12:56.144Z,3.90
2023-04-29T08:15:25.164Z,3.78
2023-04-29T08:17:52.107Z,4.80
2023-04-29T08:20:20.146Z,4.38
2023-04-29T08:22:47.262Z,4.68
2023-04-29T08:25:14.239Z,4.55
2023-04-29T08:27:43.657Z,4.82
2023-04-29T08:30:10.954Z,4.30
2023-04-29T08:32:39.976Z,4.60
2023-04-29T08:35:07.708Z,4.50
2023-04-29T08:37:34.444Z,4.05
2023-04-29T08:40:01.935Z,4.22
2023-04-29T08:42:38.093Z,4.22
2023-04-29T08:45:05.607Z,4.80
2023-04-29T08:47:33.761Z,4.45
2023-04-29T08:50:05.331Z,4.35
2023-04-29T08:52:32.968Z,3.60
2023-04-29T08:55:02.564Z,4.28
2023-04-29T08:57:39.498Z,4.07
2023-04-29T09:00:10.251Z,4.18
2023-04-29T09:02:46.250Z,4.00
2023-04-29T09:05:13.332Z,4.30
2023-04-29T09:07:41.738Z,4.13
2023-04-29T09:10:09.497Z,4.68
2023-04-29T09:12:36.912Z,4.45
2023-04-29T09:15:04.503Z,4.25
2023-04-29T09:17:42.193Z,4.00
2023-04-29T09:20:28.037Z,3.88
2023-04-29T09:23:01.873Z,3.72
2023-04-29T09:25:29.244Z,3.67
2023-04-29T09:27:56.170Z,4.32
2023-04-29T09:30:23.603Z,4.25
2023-04-29T09:33:10.161Z,3.72
2023-04-29T09:35:40.417Z,3.75
2023-04-29T09:38:12.983Z,3.50
2023-04-29T09:40:57.428Z,3.42
2023-04-29T09:43:25.020Z,3.60
2023-04-29T09:45:51.950Z,3.70
2023-04-29T09:48:18.869Z,3.80
2023-04-29T09:51:02.357Z,4.05
2023-04-29T09:53:31.603Z,3.58
2023-04-29T09:56:03.931Z,3.83
2023-04-29T09:58:38.098Z,4.13
2023-04-29T10:01:06.409Z,3.60
2023-04-29T10:03:38.652Z,3.40
2023-04-29T10:06:07.211Z,3.70
2023-04-29T10:08:35.771Z,4.00
2023-04-29T10:11:04.253Z,3.40
2023-04-29T10:13:33.170Z,4.18
2023-04-29T10:16:14.265Z,3.45
2023-04-29T10:18:44.879Z,3.30
2023-04-29T10:21:12.920Z,3.58
2023-04-29T10:23:42.005Z,3.53
2023-04-29T10:26:13.502Z,4.07
2023-04-29T10:28:42.217Z,4.32
2023-04-29T10:31:09.553Z,4.30
2023-04-29T10:33:37.490Z,4.25
2023-04-29T10:36:04.969Z,4.15
2023-04-29T10:38:36.630Z,4.38
2023-04-29T10:41:28.367Z,4.07
2023-04-29T10:43:56.166Z,4.10
2023-04-29T10:46:24.535Z,4.75
2023-04-29T10:48:56.407Z,4.35
2023-04-29T10:51:33.286Z,4.68
2023-04-29T10:54:08.288Z,4.60
2023-04-29T10:56:38.399Z,4.82
2023-04-29T10:59:05.529Z,5.43
2023-04-29T11:01:54.839Z,5.03
2023-04-29T11:04:22.990Z,4.40
2023-04-29T11:06:55.058Z,3.80
2023-04-29T11:09:26.620Z,3.78
2023-04-29T11:11:58.356Z,3.63
2023-04-29T11:14:30.076Z,3.97
2023-04-29T11:17:03.164Z,3.70
2023-04-29T11:19:41.562Z,3.58
2023-04-29T11:22:17.650Z,3.58
2023-04-29T11:24:58.317Z,3.97
2023-04-29T11:27:27.041Z,3.60
2023-04-29T11:29:59.084Z,3.10
2023-04-29T11:32:31.063Z,2.72
2023-04-29T11:35:18.149Z,3.00
2023-04-29T11:37:46.974Z,3.30
2023-04-29T11:40:14.774Z,3.00
2023-04-29T11:42:46.646Z,3.92
2023-04-29T11:45:13.811Z,3.42
2023-04-29T11:47:47.295Z,3.72
2023-04-29T11:50:17.909Z,3.08
2023-04-29T11:52:46.870Z,3.20
2023-04-29T11:55:14.689Z,2.85
2023-04-29T11:57:41.793Z,2.83
2023-04-29T12:00:14.807Z,3.22
2023-04-29T12:02:46.377Z,3.10
2023-04-29T12:05:15.287Z,3.40
2023-04-29T12:07:43.262Z,3.30
2023-04-29T12:10:11.174Z,2.90
2023-04-29T12:12:43.665Z,2.90
2023-04-29T12:15:10.959Z,3.80
2023-04-29T12:17:38.710Z,2.70
2023-04-29T12:20:07.684Z,3.20
2023-04-29T12:22:35.198Z,2.80
2023-04-29T12:25:07.850Z,3.13
2023-04-29T12:27:36.503Z,3.75
2023-04-29T12:30:08.256Z,5.07
2023-04-29T12:32:35.570Z,4.22
2023-04-29T12:35:02.494Z,4.30
2023-04-29T12:37:29.598Z,4.57
2023-04-29T12:39:57.384Z,4.40
2023-04-29T12:42:24.355Z,4.25
2023-04-29T12:44:51.354Z,4.00
2023-04-29T12:47:18.709Z,4.50
2023-04-29T12:49:48.126Z,4.43
2023-04-29T12:52:16.052Z,4.43
2023-04-29T12:54:44.380Z,4.57
2023-04-29T12:57:12.408Z,4.60
2023-04-29T12:59:41.517Z,4.20
2023-04-29T13:02:08.691Z,4.90
2023-04-29T13:04:35.881Z,3.88
2023-04-29T13:07:04.364Z,4.15
2023-04-29T13:09:32.213Z,4.13
2023-04-29T13:11:59.657Z,4.10
2023-04-29T13:14:27.010Z,4.38
2023-04-29T13:16:54.134Z,4.45
2023-04-29T13:19:30.541Z,4.72
2023-04-29T13:22:06.768Z,4.35
2023-04-29T13:24:35.928Z,4.05
2023-04-29T13:27:05.983Z,4.18
2023-04-29T13:29:33.025Z,4.88
2023-04-29T13:31:59.931Z,4.22
2023-04-29T13:34:26.946Z,4.80
2023-04-29T13:36:53.689Z,4.80
2023-04-29T13:39:23.097Z,6.60
2023-04-29T13:41:50.167Z,4.78
2023-04-29T13:44:27.339Z,4.95
2023-04-29T13:47:01.538Z,4.53
2023-04-29T13:50:01.888Z,8.50
2023-04-29T13:53:07.191Z,5.22
2023-04-29T14:00:19.336Z,4.53
2023-04-29T14:05:21.175Z,5.05
2023-04-29T14:07:48.277Z,4.57
2023-04-29T14:10:15.952Z,5.65
2023-04-29T14:12:42.725Z,4.88
2023-04-29T14:15:10.109Z,5.60
2023-04-29T14:17:37.296Z,4.80
2023-04-29T14:20:04.545Z,5.50
2023-04-29T14:22:31.293Z,5.95
2023-04-29T14:24:58.119Z,6.03
2023-04-29T14:27:25.025Z,6.03
2023-04-29T14:29:51.809Z,5.03
2023-04-29T14:32:18.698Z,6.38
2023-04-29T14:34:45.937Z,6.00
2023-04-29T14:37:12.926Z,5.60
2023-04-29T14:39:39.891Z,5.15
2023-04-29T14:42:06.902Z,5.70
2023-04-29T14:44:34.048Z,5.22
2023-04-29T14:47:00.956Z,5.13
2023-04-29T14:49:29.519Z,4.53
2023-04-29T14:51:58.052Z,5.13
2023-04-29T14:54:27.104Z,5.10
2023-04-29T14:56:54.244Z,9.77
2023-04-29T14:59:21.122Z,8.90
2023-04-29T15:01:48.801Z,5.63
2023-04-29T15:04:16.135Z,6.18
2023-04-29T15:06:43.544Z,5.90
2023-04-29T15:09:10.599Z,5.35
2023-04-29T15:11:37.504Z,5.38
2023-04-29T15:14:04.557Z,5.88
2023-04-29T15:16:31.708Z,5.25
2023-04-29T15:18:59.296Z,5.65
2023-04-29T15:21:27.134Z,6.63
2023-04-29T15:23:54.197Z,5.25
2023-04-29T15:26:21.909Z,5.68
2023-04-29T15:28:49.140Z,4.95
2023-04-29T15:31:16.073Z,4.82
2023-04-29T15:33:43.469Z,4.68
2023-04-29T15:36:10.743Z,5.00
2023-04-29T15:38:37.552Z,4.80
2023-04-29T15:41:05.678Z,11.25
2023-04-29T15:43:33.458Z,5.57
2023-04-29T15:46:00.732Z,6.93
2023-04-29T15:48:28.612Z,6.45
2023-04-29T15:50:55.404Z,5.85
2023-04-29T15:53:23.298Z,5.72
2023-04-29T15:55:50.591Z,7.40
2023-04-29T15:58:17.575Z,5.35
2023-04-29T16:00:44.316Z,6.28
2023-04-29T16:03:11.348Z,6.05
2023-04-29T16:05:38.741Z,6.00
2023-04-29T16:08:05.913Z,6.03
2023-04-29T16:10:32.796Z,6.97
2023-04-29T16:12:59.908Z,7.47
2023-04-29T16:15:27.748Z,6.68
2023-04-29T16:17:55.089Z,5.35
2023-04-29T16:20:22.427Z,8.90
2023-04-29T16:22:50.276Z,5.95
2023-04-29T16:25:17.571Z,6.35
2023-04-29T16:27:44.422Z,5.07
2023-04-29T16:30:11.670Z,5.05
2023-04-29T16:32:38.625Z,3.63
2023-04-29T16:35:05.721Z,4.75
2023-04-29T16:37:32.818Z,4.30
2023-04-29T16:40:00.399Z,4.07
2023-04-29T16:42:27.350Z,4.63
2023-04-29T16:44:54.190Z,4.68
2023-04-29T16:47:21.672Z,4.28
2023-04-29T16:49:48.486Z,5.18
2023-04-29T16:52:15.438Z,4.88
2023-04-29T16:54:42.546Z,5.10
2023-04-29T16:57:09.327Z,4.88
2023-04-29T16:59:36.161Z,5.93
2023-04-29T17:02:03.205Z,5.78
2023-04-29T17:04:33.497Z,5.60
2023-04-29T17:07:01.602Z,5.25
2023-04-29T17:09:28.527Z,5.07
2023-04-29T17:11:55.355Z,4.80
2023-04-29T17:14:22.395Z,4.63
2023-04-29T17:16:49.383Z,5.20
2023-04-29T17:19:16.791Z,5.28
2023-04-29T17:21:43.736Z,5.35
2023-04-29T17:24:10.836Z,5.30
2023-04-29T17:26:37.646Z,6.75
2023-04-29T17:29:04.457Z,6.25
2023-04-29T17:31:45.002Z,6.32
2023-04-29T17:34:19.796Z,6.15
2023-04-29T17:36:47.657Z,5.78
2023-04-29T17:39:14.907Z,5.85
2023-04-29T17:41:42.171Z,5.80
2023-04-29T17:44:09.716Z,6.00
2023-04-29T17:46:37.305Z,6.40
2023-04-29T17:49:04.745Z,7.85
2023-04-29T17:51:34.780Z,6.35
2023-04-29T17:54:04.734Z,7.85
2023-04-29T17:56:35.290Z,6.80
2023-04-29T17:59:03.667Z,7.25
2023-04-29T18:01:30.793Z,8.05
2023-04-29T18:03:57.830Z,8.80
2023-04-29T18:06:24.924Z,7.18
2023-04-29T18:08:52.028Z,8.57
2023-04-29T18:11:18.943Z,6.95
2023-04-29T18:13:45.718Z,8.45
2023-04-29T18:16:12.600Z,9.02
2023-04-29T18:18:39.716Z,9.90
2023-04-29T18:21:06.778Z,10.27
2023-04-29T18:23:33.712Z,10.35
2023-04-29T18:26:00.707Z,12.45
2023-04-29T18:28:29.281Z,11.88
2023-04-29T18:30:57.058Z,11.27
2023-04-29T18:33:25.288Z,11.80
2023-04-29T18:35:52.433Z,12.07
2023-04-29T18:38:19.386Z,11.85
2023-04-29T18:40:46.367Z,11.73
2023-04-29T18:43:17.146Z,11.85
2023-04-29T18:45:47.044Z,13.57
2023-04-29T18:48:15.131Z,14.13
2023-04-29T18:50:42.501Z,14.20
2023-04-29T18:53:09.542Z,16.58
2023-04-29T18:55:36.532Z,16.08
2023-04-29T18:58:03.409Z,16.08
2023-04-29T19:00:30.506Z,20.05
2023-04-29T19:02:58.351Z,19.92
2023-04-29T19:05:25.121Z,17.63
2023-04-29T19:07:51.942Z,17.25
2023-04-29T19:10:19.002Z,16.02
2023-04-29T19:12:46.311Z,15.25
2023-04-29T19:15:13.376Z,14.95
2023-04-29T19:17:40.314Z,14.60
2023-04-29T19:20:08.122Z,14.50
2023-04-29T19:22:35.401Z,13.57
2023-04-29T19:25:02.718Z,14.13
2023-04-29T19:27:29.564Z,12.48
2023-04-29T19:29:56.576Z,12.70
2023-04-29T19:32:23.596Z,12.45
2023-04-29T19:34:50.835Z,11.82
2023-04-29T19:37:17.607Z,12.15
2023-04-29T19:39:44.549Z,12.80
2023-04-29T19:42:12.470Z,12.55
2023-04-29T19:44:39.410Z,12.43
2023-04-29T19:47:06.327Z,11.27
2023-04-29T19:49:33.934Z,11.20
2023-04-29T19:52:02.122Z,11.07
2023-04-29T19:54:29.222Z,11.90
2023-04-29T19:56:56.208Z,12.68
2023-04-29T19:59:23.254Z,11.25
2023-04-29T20:01:51.445Z,11.93
2023-04-29T20:04:18.522Z,11.52
2023-04-29T20:06:46.153Z,11.40
2023-04-29T20:09:14.898Z,10.50
2023-04-29T20:11:41.717Z,11.30
2023-04-29T20:14:09.550Z,10.90
2023-04-29T20:16:36.582Z,11.38
2023-04-29T20:19:03.437Z,11.88
2023-04-29T20:21:30.262Z,12.35
2023-04-29T20:23:57.186Z,12.23
2023-04-29T20:26:24.089Z,11.50
2023-04-29T20:28:50.900Z,12.27
2023-04-29T20:31:17.760Z,12.60
2023-04-29T20:33:44.565Z,13.52
2023-04-29T20:36:11.367Z,12.38
2023-04-29T20:38:38.268Z,12.65
2023-04-29T20:41:08.376Z,12.48
2023-04-29T20:43:35.416Z,11.68
2023-04-29T20:46:03.056Z,11.07
2023-04-29T20:48:30.004Z,11.10
2023-04-29T20:50:56.786Z,11.02
2023-04-29T20:53:23.642Z,11.52
2023-04-29T20:55:50.516Z,11.95
2023-04-29T20:58:17.525Z,11.30
2023-04-29T21:00:45.123Z,12.10
2023-04-29T21:03:12.032Z,12.52
2023-04-29T21:05:39.159Z,11.88
2023-04-29T21:08:06.197Z,12.70
2023-04-29T21:10:33.101Z,11.98
2023-04-29T21:12:59.993Z,11.50
2023-04-29T21:15:29.201Z,11.38
2023-04-29T21:17:56.737Z,12.10
2023-04-29T21:20:24.012Z,11.85
2023-04-29T21:22:51.006Z,12.27
2023-04-29T21:25:18.097Z,11.95
2023-04-29T21:27:45.081Z,11.05
2023-04-29T21:30:12.366Z,12.55
2023-04-29T21:32:39.466Z,11.38
2023-04-29T21:35:06.777Z,12.07
2023-04-29T21:37:34.051Z,12.02
2023-04-29T21:40:00.953Z,13.50
2023-04-29T21:42:28.207Z,12.90
2023-04-29T21:45:00.417Z,12.57
2023-04-29T21:47:29.371Z,12.15
2023-04-29T21:49:57.201Z,13.00
2023-04-29T21:52:24.515Z,13.60
2023-04-29T21:54:51.712Z,12.32
2023-04-29T21:57:21.984Z,12.43
2023-04-29T21:59:53.522Z,12.63
2023-04-29T22:02:25.484Z,12.40
2023-04-29T22:04:53.680Z,12.68
2023-04-29T22:07:22.383Z,12.77
2023-04-29T22:09:49.815Z,12.48
2023-04-29T22:12:18.778Z,12.55
2023-04-29T22:14:46.525Z,12.25
2023-04-29T22:17:14.271Z,13.68
2023-04-29T22:19:41.340Z,13.00
2023-04-29T22:22:08.874Z,13.48
2023-04-29T22:24:35.914Z,13.88
2023-04-29T22:27:03.716Z,13.53
2023-04-29T22:29:30.556Z,12.82
2023-04-29T22:31:57.497Z,12.98
2023-04-29T22:34:24.602Z,12.85
2023-04-29T22:36:51.375Z,13.60
2023-04-29T22:39:18.725Z,14.27
2023-04-29T22:41:45.709Z,16.42
2023-04-29T22:44:12.673Z,16.30
2023-04-29T22:46:40.600Z,16.65
2023-04-29T22:49:08.741Z,16.23
2023-04-29T22:51:35.524Z,15.38
2023-04-29T22:54:02.327Z,14.95
2023-04-29T22:56:29.195Z,16.27
2023-04-29T22:58:56.083Z,15.80
2023-04-29T23:01:23.063Z,16.77
2023-04-29T23:03:49.972Z,15.75
2023-04-29T23:06:17.068Z,16.25
2023-04-29T23:08:47.149Z,15.98
2023-04-29T23:11:13.892Z,16.20
2023-04-29T23:13:40.833Z,14.73
2023-04-29T23:16:10.614Z,13.27
2023-04-29T23:18:37.857Z,13.93
2023-04-29T23:21:04.894Z,14.73
2023-04-29T23:23:31.771Z,15.70
2023-04-29T23:25:58.794Z,13.10
2023-04-29T23:28:25.941Z,13.77
2023-04-29T23:30:53.341Z,13.23
2023-04-29T23:33:20.449Z,13.13
2023-04-29T23:35:53.857Z,13.68
2023-04-29T23:38:20.722Z,14.20
2023-04-29T23:40:47.697Z,13.52
2023-04-29T23:43:18.235Z,14.93
2023-04-29T23:45:46.133Z,14.35
2023-04-29T23:48:13.985Z,15.10
2023-04-29T23:50:40.840Z,14.60
2023-04-29T23:53:07.888Z,15.17
2023-04-29T23:55:34.754Z,15.00
2023-04-29T23:58:01.665Z,15.73
